Terminal Aerodrome Forecast
Issued by NWS Sioux Falls, SD

Home | Current Version | Previous Version | Graphics & Text | Print | Product List | Glossary On
Versions: 1 2 3 4 5 6 7 8 9 10 11 12 13
000
FTUS43 KFSD 271736
TAFFSD
TAF
KFSD 271736Z 2718/2818 24005KT P6SM SCT050
     FM280100 18005KT P6SM SCT070
     FM280300 18005KT P6SM BKN140
      TEMPO 2805/2808 TSRA SCT060CB BKN100
     FM280900 31007KT P6SM SCT060
     FM281500 34014KT P6SM SCT040=

USA.gov is the U.S. government's official web portal to all federal, state and local government web resources and services.